sensor_id;sensor_type;location;lat;lon;timestamp;P1;durP1;ratioP1;P2;durP2;ratioP2
66212;SDS011;53015;50.046;8.238;2023-12-29T00:00:32;3.00;;;1.05;;
66212;SDS011;53015;50.046;8.238;2023-12-29T00:02:58;1.50;;;1.30;;
66212;SDS011;53015;50.046;8.238;2023-12-29T00:05:24;2.85;;;1.40;;
66212;SDS011;53015;50.046;8.238;2023-12-29T00:07:49;1.98;;;1.10;;
66212;SDS011;53015;50.046;8.238;2023-12-29T00:10:15;2.30;;;1.40;;
66212;SDS011;53015;50.046;8.238;2023-12-29T00:12:40;1.30;;;1.15;;
66212;SDS011;53015;50.046;8.238;2023-12-29T00:15:06;3.80;;;1.30;;
66212;SDS011;53015;50.046;8.238;2023-12-29T00:17:35;1.50;;;1.17;;
66212;SDS011;53015;50.046;8.238;2023-12-29T00:20:00;2.50;;;1.25;;
66212;SDS011;53015;50.046;8.238;2023-12-29T00:22:26;1.50;;;1.20;;
66212;SDS011;53015;50.046;8.238;2023-12-29T00:24:51;2.47;;;1.45;;
66212;SDS011;53015;50.046;8.238;2023-12-29T00:27:17;2.47;;;1.40;;
66212;SDS011;53015;50.046;8.238;2023-12-29T00:29:42;2.42;;;1.10;;
66212;SDS011;53015;50.046;8.238;2023-12-29T00:32:08;2.08;;;1.40;;
66212;SDS011;53015;50.046;8.238;2023-12-29T00:34:35;2.45;;;1.30;;
66212;SDS011;53015;50.046;8.238;2023-12-29T00:37:02;1.40;;;1.02;;
66212;SDS011;53015;50.046;8.238;2023-12-29T00:39:28;1.15;;;1.00;;
66212;SDS011;53015;50.046;8.238;2023-12-29T00:41:54;1.17;;;1.10;;
66212;SDS011;53015;50.046;8.238;2023-12-29T00:44:19;2.50;;;1.02;;
66212;SDS011;53015;50.046;8.238;2023-12-29T00:46:45;3.55;;;1.10;;
66212;SDS011;53015;50.046;8.238;2023-12-29T00:49:11;1.77;;;1.30;;
66212;SDS011;53015;50.046;8.238;2023-12-29T00:51:40;2.28;;;1.30;;
66212;SDS011;53015;50.046;8.238;2023-12-29T00:54:06;2.10;;;1.25;;
66212;SDS011;53015;50.046;8.238;2023-12-29T00:56:32;1.40;;;1.25;;
66212;SDS011;53015;50.046;8.238;2023-12-29T00:58:57;3.47;;;1.13;;
66212;SDS011;53015;50.046;8.238;2023-12-29T01:01:23;2.25;;;1.27;;
66212;SDS011;53015;50.046;8.238;2023-12-29T01:03:49;2.58;;;1.23;;
66212;SDS011;53015;50.046;8.238;2023-12-29T01:06:15;2.63;;;1.50;;
66212;SDS011;53015;50.046;8.238;2023-12-29T01:08:43;2.92;;;1.30;;
66212;SDS011;53015;50.046;8.238;2023-12-29T01:11:08;1.50;;;1.20;;
66212;SDS011;53015;50.046;8.238;2023-12-29T01:13:34;2.17;;;1.00;;
66212;SDS011;53015;50.046;8.238;2023-12-29T01:15:59;1.70;;;1.30;;
66212;SDS011;53015;50.046;8.238;2023-12-29T01:18:25;3.28;;;1.15;;
66212;SDS011;53015;50.046;8.238;2023-12-29T01:20:51;1.25;;;1.05;;
66212;SDS011;53015;50.046;8.238;2023-12-29T01:23:16;4.80;;;1.30;;
66212;SDS011;53015;50.046;8.238;2023-12-29T01:25:44;2.65;;;1.50;;
66212;SDS011;53015;50.046;8.238;2023-12-29T01:28:10;2.58;;;1.27;;
66212;SDS011;53015;50.046;8.238;2023-12-29T01:30:36;2.50;;;1.25;;
66212;SDS011;53015;50.046;8.238;2023-12-29T01:33:02;1.67;;;1.27;;
66212;SDS011;53015;50.046;8.238;2023-12-29T01:35:27;1.92;;;1.33;;
66212;SDS011;53015;50.046;8.238;2023-12-29T01:37:53;2.35;;;1.35;;
66212;SDS011;53015;50.046;8.238;2023-12-29T01:40:19;4.28;;;1.42;;
66212;SDS011;53015;50.046;8.238;2023-12-29T01:42:46;1.65;;;1.45;;
66212;SDS011;53015;50.046;8.238;2023-12-29T01:45:15;2.05;;;1.50;;
66212;SDS011;53015;50.046;8.238;2023-12-29T01:47:46;4.00;;;1.70;;
66212;SDS011;53015;50.046;8.238;2023-12-29T01:50:12;2.85;;;1.70;;
66212;SDS011;53015;50.046;8.238;2023-12-29T01:52:38;3.40;;;1.70;;
66212;SDS011;53015;50.046;8.238;2023-12-29T01:55:04;2.45;;;1.80;;
66212;SDS011;53015;50.046;8.238;2023-12-29T01:57:30;4.07;;;1.75;;
66212;SDS011;53015;50.046;8.238;2023-12-29T01:59:57;3.13;;;1.90;;
66212;SDS011;53015;50.046;8.238;2023-12-29T02:02:23;2.80;;;1.75;;
66212;SDS011;53015;50.046;8.238;2023-12-29T02:04:48;2.17;;;1.67;;
66212;SDS011;53015;50.046;8.238;2023-12-29T02:07:14;2.72;;;1.70;;
66212;SDS011;53015;50.046;8.238;2023-12-29T02:09:40;2.08;;;1.67;;
66212;SDS011;53015;50.046;8.238;2023-12-29T02:12:06;2.45;;;1.50;;
66212;SDS011;53015;50.046;8.238;2023-12-29T02:14:32;2.83;;;1.45;;
66212;SDS011;53015;50.046;8.238;2023-12-29T02:17:01;4.22;;;1.30;;
66212;SDS011;53015;50.046;8.238;2023-12-29T02:19:37;2.60;;;1.60;;
66212;SDS011;53015;50.046;8.238;2023-12-29T02:22:04;4.53;;;1.38;;
66212;SDS011;53015;50.046;8.238;2023-12-29T02:24:30;2.83;;;1.30;;
66212;SDS011;53015;50.046;8.238;2023-12-29T02:27:02;1.58;;;1.20;;
66212;SDS011;53015;50.046;8.238;2023-12-29T02:29:33;3.47;;;1.40;;
66212;SDS011;53015;50.046;8.238;2023-12-29T02:32:00;2.95;;;1.27;;
66212;SDS011;53015;50.046;8.238;2023-12-29T02:34:29;4.30;;;1.23;;
66212;SDS011;53015;50.046;8.238;2023-12-29T02:36:57;2.75;;;1.10;;
66212;SDS011;53015;50.046;8.238;2023-12-29T02:39:24;5.47;;;1.70;;
66212;SDS011;53015;50.046;8.238;2023-12-29T02:41:50;1.80;;;1.15;;
66212;SDS011;53015;50.046;8.238;2023-12-29T02:44:17;2.05;;;1.00;;
66212;SDS011;53015;50.046;8.238;2023-12-29T02:46:42;3.80;;;1.17;;
66212;SDS011;53015;50.046;8.238;2023-12-29T02:49:08;3.00;;;1.13;;
66212;SDS011;53015;50.046;8.238;2023-12-29T02:51:34;2.35;;;1.00;;
66212;SDS011;53015;50.046;8.238;2023-12-29T02:54:00;2.22;;;1.00;;
66212;SDS011;53015;50.046;8.238;2023-12-29T02:56:25;3.72;;;1.13;;
66212;SDS011;53015;50.046;8.238;2023-12-29T02:58:51;2.65;;;0.75;;
66212;SDS011;53015;50.046;8.238;2023-12-29T03:01:18;2.53;;;0.75;;
66212;SDS011;53015;50.046;8.238;2023-12-29T03:03:43;3.97;;;1.17;;
66212;SDS011;53015;50.046;8.238;2023-12-29T03:06:09;2.42;;;1.00;;
66212;SDS011;53015;50.046;8.238;2023-12-29T03:08:34;2.60;;;1.30;;
66212;SDS011;53015;50.046;8.238;2023-12-29T03:11:00;3.08;;;1.13;;
66212;SDS011;53015;50.046;8.238;2023-12-29T03:13:25;2.30;;;1.30;;
66212;SDS011;53015;50.046;8.238;2023-12-29T03:15:51;1.98;;;0.95;;
66212;SDS011;53015;50.046;8.238;2023-12-29T03:18:18;3.15;;;1.38;;
66212;SDS011;53015;50.046;8.238;2023-12-29T03:20:44;1.00;;;0.85;;
66212;SDS011;53015;50.046;8.238;2023-12-29T03:23:10;1.67;;;1.02;;
66212;SDS011;53015;50.046;8.238;2023-12-29T03:25:35;1.60;;;0.90;;
66212;SDS011;53015;50.046;8.238;2023-12-29T03:28:01;3.50;;;1.40;;
66212;SDS011;53015;50.046;8.238;2023-12-29T03:30:26;3.20;;;1.20;;
66212;SDS011;53015;50.046;8.238;2023-12-29T03:32:52;1.20;;;1.00;;
66212;SDS011;53015;50.046;8.238;2023-12-29T03:35:18;2.88;;;1.23;;
66212;SDS011;53015;50.046;8.238;2023-12-29T03:37:44;3.20;;;1.10;;
66212;SDS011;53015;50.046;8.238;2023-12-29T03:40:10;1.75;;;1.10;;
66212;SDS011;53015;50.046;8.238;2023-12-29T03:42:36;3.47;;;1.20;;
66212;SDS011;53015;50.046;8.238;2023-12-29T03:45:01;1.65;;;0.95;;
66212;SDS011;53015;50.046;8.238;2023-12-29T03:47:28;3.38;;;1.20;;
66212;SDS011;53015;50.046;8.238;2023-12-29T03:49:53;1.88;;;1.20;;
66212;SDS011;53015;50.046;8.238;2023-12-29T03:52:20;3.72;;;1.30;;
66212;SDS011;53015;50.046;8.238;2023-12-29T03:54:46;5.25;;;1.23;;
66212;SDS011;53015;50.046;8.238;2023-12-29T03:57:11;1.73;;;1.05;;
66212;SDS011;53015;50.046;8.238;2023-12-29T03:59:37;2.15;;;1.05;;
66212;SDS011;53015;50.046;8.238;2023-12-29T04:02:02;3.28;;;1.10;;
66212;SDS011;53015;50.046;8.238;2023-12-29T04:04:28;3.53;;;1.30;;
66212;SDS011;53015;50.046;8.238;2023-12-29T04:06:54;4.55;;;1.30;;
66212;SDS011;53015;50.046;8.238;2023-12-29T04:09:21;4.88;;;1.17;;
66212;SDS011;53015;50.046;8.238;2023-12-29T04:11:46;5.97;;;1.42;;
66212;SDS011;53015;50.046;8.238;2023-12-29T04:14:12;2.35;;;1.15;;
66212;SDS011;53015;50.046;8.238;2023-12-29T04:16:37;4.45;;;1.00;;
66212;SDS011;53015;50.046;8.238;2023-12-29T04:19:03;3.40;;;1.13;;
66212;SDS011;53015;50.046;8.238;2023-12-29T04:21:29;2.67;;;1.33;;
66212;SDS011;53015;50.046;8.238;2023-12-29T04:23:54;2.13;;;0.80;;
66212;SDS011;53015;50.046;8.238;2023-12-29T04:26:21;3.03;;;1.10;;
66212;SDS011;53015;50.046;8.238;2023-12-29T04:28:46;2.60;;;1.15;;
66212;SDS011;53015;50.046;8.238;2023-12-29T04:31:12;5.95;;;1.48;;
66212;SDS011;53015;50.046;8.238;2023-12-29T04:33:37;3.95;;;1.40;;
66212;SDS011;53015;50.046;8.238;2023-12-29T04:36:03;2.33;;;1.20;;
66212;SDS011;53015;50.046;8.238;2023-12-29T04:38:29;4.47;;;1.88;;
66212;SDS011;53015;50.046;8.238;2023-12-29T04:40:55;1.65;;;1.00;;
66212;SDS011;53015;50.046;8.238;2023-12-29T04:43:22;1.55;;;0.75;;
66212;SDS011;53015;50.046;8.238;2023-12-29T04:45:47;1.75;;;1.00;;
66212;SDS011;53015;50.046;8.238;2023-12-29T04:48:13;1.83;;;0.90;;
66212;SDS011;53015;50.046;8.238;2023-12-29T04:50:38;4.82;;;1.20;;
66212;SDS011;53015;50.046;8.238;2023-12-29T04:53:04;2.28;;;0.90;;
66212;SDS011;53015;50.046;8.238;2023-12-29T04:55:29;2.38;;;0.85;;
66212;SDS011;53015;50.046;8.238;2023-12-29T04:57:55;1.95;;;1.50;;
66212;SDS011;53015;50.046;8.238;2023-12-29T05:00:22;4.88;;;1.08;;
66212;SDS011;53015;50.046;8.238;2023-12-29T05:02:48;8.23;;;1.40;;
66212;SDS011;53015;50.046;8.238;2023-12-29T05:05:14;2.33;;;1.17;;
66212;SDS011;53015;50.046;8.238;2023-12-29T05:07:40;10.18;;;1.33;;
66212;SDS011;53015;50.046;8.238;2023-12-29T05:10:06;3.30;;;1.13;;
66212;SDS011;53015;50.046;8.238;2023-12-29T05:12:32;2.20;;;1.10;;
66212;SDS011;53015;50.046;8.238;2023-12-29T05:14:58;4.07;;;1.20;;
66212;SDS011;53015;50.046;8.238;2023-12-29T05:17:25;6.18;;;1.10;;
66212;SDS011;53015;50.046;8.238;2023-12-29T05:19:50;4.25;;;0.98;;
66212;SDS011;53015;50.046;8.238;2023-12-29T05:22:16;2.25;;;0.90;;
66212;SDS011;53015;50.046;8.238;2023-12-29T05:24:41;1.90;;;1.20;;
66212;SDS011;53015;50.046;8.238;2023-12-29T05:27:07;2.15;;;0.80;;
66212;SDS011;53015;50.046;8.238;2023-12-29T05:29:32;1.73;;;0.98;;
66212;SDS011;53015;50.046;8.238;2023-12-29T05:31:58;1.58;;;0.90;;
66212;SDS011;53015;50.046;8.238;2023-12-29T05:34:25;1.63;;;1.00;;
66212;SDS011;53015;50.046;8.238;2023-12-29T05:36:51;1.85;;;0.80;;
66212;SDS011;53015;50.046;8.238;2023-12-29T05:39:16;1.70;;;0.80;;
66212;SDS011;53015;50.046;8.238;2023-12-29T05:41:42;1.55;;;1.08;;
66212;SDS011;53015;50.046;8.238;2023-12-29T05:44:07;3.13;;;0.90;;
66212;SDS011;53015;50.046;8.238;2023-12-29T05:46:33;2.42;;;1.00;;
66212;SDS011;53015;50.046;8.238;2023-12-29T05:48:58;2.38;;;1.10;;
66212;SDS011;53015;50.046;8.238;2023-12-29T05:51:26;3.53;;;0.90;;
66212;SDS011;53015;50.046;8.238;2023-12-29T05:53:51;4.28;;;1.20;;
66212;SDS011;53015;50.046;8.238;2023-12-29T05:56:17;4.55;;;1.10;;
66212;SDS011;53015;50.046;8.238;2023-12-29T05:58:42;8.43;;;1.20;;
66212;SDS011;53015;50.046;8.238;2023-12-29T06:01:08;4.30;;;2.00;;
66212;SDS011;53015;50.046;8.238;2023-12-29T06:03:34;4.97;;;1.13;;
66212;SDS011;53015;50.046;8.238;2023-12-29T06:05:59;2.42;;;1.00;;
66212;SDS011;53015;50.046;8.238;2023-12-29T06:08:27;3.17;;;1.10;;
66212;SDS011;53015;50.046;8.238;2023-12-29T06:10:52;4.10;;;1.00;;
66212;SDS011;53015;50.046;8.238;2023-12-29T06:13:18;3.53;;;1.08;;
66212;SDS011;53015;50.046;8.238;2023-12-29T06:15:43;4.85;;;1.00;;
66212;SDS011;53015;50.046;8.238;2023-12-29T06:18:09;6.45;;;1.27;;
66212;SDS011;53015;50.046;8.238;2023-12-29T06:20:34;4.20;;;1.05;;
66212;SDS011;53015;50.046;8.238;2023-12-29T06:23:00;2.05;;;0.90;;
66212;SDS011;53015;50.046;8.238;2023-12-29T06:25:27;4.72;;;1.17;;
66212;SDS011;53015;50.046;8.238;2023-12-29T06:27:53;1.95;;;0.82;;
66212;SDS011;53015;50.046;8.238;2023-12-29T06:30:19;2.30;;;1.08;;
66212;SDS011;53015;50.046;8.238;2023-12-29T06:32:44;2.30;;;1.13;;
66212;SDS011;53015;50.046;8.238;2023-12-29T06:35:10;5.18;;;0.95;;
66212;SDS011;53015;50.046;8.238;2023-12-29T06:37:36;1.20;;;0.90;;
66212;SDS011;53015;50.046;8.238;2023-12-29T06:40:01;4.13;;;0.80;;
66212;SDS011;53015;50.046;8.238;2023-12-29T06:42:28;1.80;;;0.90;;
66212;SDS011;53015;50.046;8.238;2023-12-29T06:44:54;2.72;;;0.75;;
66212;SDS011;53015;50.046;8.238;2023-12-29T06:47:19;1.85;;;1.05;;
66212;SDS011;53015;50.046;8.238;2023-12-29T06:49:45;4.35;;;0.80;;
66212;SDS011;53015;50.046;8.238;2023-12-29T06:52:10;3.47;;;1.15;;
66212;SDS011;53015;50.046;8.238;2023-12-29T06:54:36;6.28;;;1.27;;
66212;SDS011;53015;50.046;8.238;2023-12-29T06:57:01;3.33;;;1.20;;
66212;SDS011;53015;50.046;8.238;2023-12-29T06:59:28;1.20;;;1.00;;
66212;SDS011;53015;50.046;8.238;2023-12-29T07:01:54;3.42;;;1.00;;
66212;SDS011;53015;50.046;8.238;2023-12-29T07:04:19;2.50;;;1.15;;
66212;SDS011;53015;50.046;8.238;2023-12-29T07:06:45;4.85;;;1.20;;
66212;SDS011;53015;50.046;8.238;2023-12-29T07:09:10;4.45;;;1.10;;
66212;SDS011;53015;50.046;8.238;2023-12-29T07:11:36;3.28;;;1.23;;
66212;SDS011;53015;50.046;8.238;2023-12-29T07:14:01;3.13;;;0.88;;
66212;SDS011;53015;50.046;8.238;2023-12-29T07:16:28;4.43;;;1.10;;
66212;SDS011;53015;50.046;8.238;2023-12-29T07:18:54;5.20;;;1.20;;
66212;SDS011;53015;50.046;8.238;2023-12-29T07:21:19;1.90;;;1.00;;
66212;SDS011;53015;50.046;8.238;2023-12-29T07:23:45;2.28;;;1.00;;
66212;SDS011;53015;50.046;8.238;2023-12-29T07:26:11;3.92;;;1.17;;
66212;SDS011;53015;50.046;8.238;2023-12-29T07:28:36;3.50;;;1.40;;
66212;SDS011;53015;50.046;8.238;2023-12-29T07:31:02;2.88;;;0.85;;
66212;SDS011;53015;50.046;8.238;2023-12-29T07:33:29;1.40;;;0.95;;
66212;SDS011;53015;50.046;8.238;2023-12-29T07:35:55;1.70;;;0.93;;
66212;SDS011;53015;50.046;8.238;2023-12-29T07:38:21;3.95;;;1.23;;
66212;SDS011;53015;50.046;8.238;2023-12-29T07:40:46;2.40;;;0.90;;
66212;SDS011;53015;50.046;8.238;2023-12-29T07:43:12;3.30;;;0.93;;
66212;SDS011;53015;50.046;8.238;2023-12-29T07:45:38;4.50;;;1.60;;
66212;SDS011;53015;50.046;8.238;2023-12-29T07:48:03;3.42;;;1.25;;
66212;SDS011;53015;50.046;8.238;2023-12-29T07:50:31;12.70;;;4.45;;
66212;SDS011;53015;50.046;8.238;2023-12-29T07:52:56;4.53;;;1.45;;
66212;SDS011;53015;50.046;8.238;2023-12-29T07:55:22;4.72;;;1.50;;
66212;SDS011;53015;50.046;8.238;2023-12-29T07:57:47;1.85;;;1.00;;
66212;SDS011;53015;50.046;8.238;2023-12-29T08:00:13;2.38;;;1.35;;
66212;SDS011;53015;50.046;8.238;2023-12-29T08:02:39;10.70;;;4.25;;
66212;SDS011;53015;50.046;8.238;2023-12-29T08:05:05;6.78;;;2.55;;
66212;SDS011;53015;50.046;8.238;2023-12-29T08:07:32;7.53;;;3.10;;
66212;SDS011;53015;50.046;8.238;2023-12-29T08:09:58;2.63;;;0.98;;
66212;SDS011;53015;50.046;8.238;2023-12-29T08:12:24;2.20;;;1.10;;
66212;SDS011;53015;50.046;8.238;2023-12-29T08:14:50;3.30;;;1.10;;
66212;SDS011;53015;50.046;8.238;2023-12-29T08:17:15;7.95;;;2.05;;
66212;SDS011;53015;50.046;8.238;2023-12-29T08:19:41;5.03;;;1.27;;
66212;SDS011;53015;50.046;8.238;2023-12-29T08:22:06;3.33;;;1.48;;
66212;SDS011;53015;50.046;8.238;2023-12-29T08:24:33;3.10;;;1.10;;
66212;SDS011;53015;50.046;8.238;2023-12-29T08:26:59;1.33;;;0.70;;
66212;SDS011;53015;50.046;8.238;2023-12-29T08:29:25;1.80;;;0.80;;
66212;SDS011;53015;50.046;8.238;2023-12-29T08:31:50;4.10;;;0.85;;
66212;SDS011;53015;50.046;8.238;2023-12-29T08:34:16;2.85;;;1.13;;
66212;SDS011;53015;50.046;8.238;2023-12-29T08:36:41;5.25;;;1.20;;
66212;SDS011;53015;50.046;8.238;2023-12-29T08:39:07;2.63;;;1.00;;
66212;SDS011;53015;50.046;8.238;2023-12-29T08:41:34;3.55;;;0.90;;
66212;SDS011;53015;50.046;8.238;2023-12-29T08:44:00;2.35;;;1.05;;
66212;SDS011;53015;50.046;8.238;2023-12-29T08:46:25;2.15;;;0.98;;
66212;SDS011;53015;50.046;8.238;2023-12-29T08:48:51;5.13;;;1.65;;
66212;SDS011;53015;50.046;8.238;2023-12-29T08:51:16;5.00;;;1.58;;
66212;SDS011;53015;50.046;8.238;2023-12-29T08:53:42;4.60;;;1.52;;
66212;SDS011;53015;50.046;8.238;2023-12-29T08:56:07;4.22;;;1.70;;
66212;SDS011;53015;50.046;8.238;2023-12-29T08:58:34;5.45;;;1.88;;
66212;SDS011;53015;50.046;8.238;2023-12-29T09:01:00;2.05;;;1.20;;
66212;SDS011;53015;50.046;8.238;2023-12-29T09:03:25;2.90;;;1.35;;
66212;SDS011;53015;50.046;8.238;2023-12-29T09:05:51;3.92;;;1.10;;
66212;SDS011;53015;50.046;8.238;2023-12-29T09:08:16;3.42;;;0.95;;
66212;SDS011;53015;50.046;8.238;2023-12-29T09:10:42;2.13;;;0.85;;
66212;SDS011;53015;50.046;8.238;2023-12-29T09:13:08;4.68;;;0.77;;
66212;SDS011;53015;50.046;8.238;2023-12-29T09:15:35;2.78;;;0.75;;
66212;SDS011;53015;50.046;8.238;2023-12-29T09:18:01;1.98;;;0.55;;
66212;SDS011;53015;50.046;8.238;2023-12-29T09:20:27;3.22;;;1.60;;
66212;SDS011;53015;50.046;8.238;2023-12-29T09:22:54;4.40;;;1.20;;
66212;SDS011;53015;50.046;8.238;2023-12-29T09:25:19;5.60;;;1.30;;
66212;SDS011;53015;50.046;8.238;2023-12-29T09:27:45;3.38;;;1.10;;
66212;SDS011;53015;50.046;8.238;2023-12-29T09:30:11;2.42;;;0.82;;
66212;SDS011;53015;50.046;8.238;2023-12-29T09:32:38;5.75;;;0.70;;
66212;SDS011;53015;50.046;8.238;2023-12-29T09:35:03;3.83;;;1.00;;
66212;SDS011;53015;50.046;8.238;2023-12-29T09:37:29;3.58;;;0.80;;
66212;SDS011;53015;50.046;8.238;2023-12-29T09:39:55;1.75;;;0.60;;
66212;SDS011;53015;50.046;8.238;2023-12-29T09:42:21;2.85;;;0.73;;
66212;SDS011;53015;50.046;8.238;2023-12-29T09:44:47;1.33;;;0.70;;
66212;SDS011;53015;50.046;8.238;2023-12-29T09:47:15;2.78;;;0.70;;
66212;SDS011;53015;50.046;8.238;2023-12-29T09:49:45;3.97;;;0.80;;
66212;SDS011;53015;50.046;8.238;2023-12-29T09:52:11;3.13;;;0.88;;
66212;SDS011;53015;50.046;8.238;2023-12-29T09:54:38;3.65;;;1.02;;
66212;SDS011;53015;50.046;8.238;2023-12-29T09:57:05;2.30;;;0.68;;
66212;SDS011;53015;50.046;8.238;2023-12-29T09:59:30;2.42;;;0.85;;
66212;SDS011;53015;50.046;8.238;2023-12-29T10:01:59;1.90;;;0.60;;
66212;SDS011;53015;50.046;8.238;2023-12-29T10:04:25;2.83;;;0.60;;
66212;SDS011;53015;50.046;8.238;2023-12-29T10:06:52;3.92;;;0.75;;
66212;SDS011;53015;50.046;8.238;2023-12-29T10:09:19;0.95;;;0.55;;
66212;SDS011;53015;50.046;8.238;2023-12-29T10:11:46;1.95;;;0.70;;
66212;SDS011;53015;50.046;8.238;2023-12-29T10:14:15;3.63;;;0.77;;
66212;SDS011;53015;50.046;8.238;2023-12-29T10:16:50;3.30;;;1.02;;
66212;SDS011;53015;50.046;8.238;2023-12-29T10:19:23;2.88;;;0.75;;
66212;SDS011;53015;50.046;8.238;2023-12-29T10:24:25;2.45;;;0.60;;
66212;SDS011;53015;50.046;8.238;2023-12-29T10:26:50;1.50;;;0.85;;
66212;SDS011;53015;50.046;8.238;2023-12-29T10:29:16;2.88;;;0.80;;
66212;SDS011;53015;50.046;8.238;2023-12-29T10:31:43;4.18;;;0.75;;
66212;SDS011;53015;50.046;8.238;2023-12-29T10:34:18;1.52;;;0.77;;
66212;SDS011;53015;50.046;8.238;2023-12-29T10:36:48;3.03;;;0.63;;
66212;SDS011;53015;50.046;8.238;2023-12-29T10:39:15;1.45;;;0.75;;
66212;SDS011;53015;50.046;8.238;2023-12-29T10:41:41;1.65;;;0.75;;
66212;SDS011;53015;50.046;8.238;2023-12-29T10:44:07;1.38;;;0.70;;
66212;SDS011;53015;50.046;8.238;2023-12-29T10:46:33;1.85;;;0.60;;
66212;SDS011;53015;50.046;8.238;2023-12-29T10:49:06;1.20;;;0.60;;
66212;SDS011;53015;50.046;8.238;2023-12-29T10:51:32;2.95;;;0.60;;
66212;SDS011;53015;50.046;8.238;2023-12-29T10:53:57;2.45;;;0.90;;
66212;SDS011;53015;50.046;8.238;2023-12-29T10:56:24;2.67;;;0.70;;
66212;SDS011;53015;50.046;8.238;2023-12-29T10:58:56;2.67;;;0.70;;
66212;SDS011;53015;50.046;8.238;2023-12-29T11:01:22;2.70;;;0.70;;
66212;SDS011;53015;50.046;8.238;2023-12-29T11:03:56;2.25;;;0.80;;
66212;SDS011;53015;50.046;8.238;2023-12-29T11:06:22;5.53;;;0.70;;
66212;SDS011;53015;50.046;8.238;2023-12-29T11:08:48;3.60;;;0.90;;
66212;SDS011;53015;50.046;8.238;2023-12-29T11:11:14;7.03;;;0.88;;
66212;SDS011;53015;50.046;8.238;2023-12-29T11:13:41;3.35;;;0.98;;
66212;SDS011;53015;50.046;8.238;2023-12-29T11:16:07;3.08;;;1.00;;
66212;SDS011;53015;50.046;8.238;2023-12-29T11:18:34;3.58;;;0.90;;
66212;SDS011;53015;50.046;8.238;2023-12-29T11:21:00;2.00;;;0.50;;
66212;SDS011;53015;50.046;8.238;2023-12-29T11:23:26;4.82;;;0.85;;
66212;SDS011;53015;50.046;8.238;2023-12-29T11:25:52;3.38;;;0.52;;
66212;SDS011;53015;50.046;8.238;2023-12-29T11:28:18;2.28;;;0.80;;
66212;SDS011;53015;50.046;8.238;2023-12-29T11:30:46;3.90;;;0.90;;
66212;SDS011;53015;50.046;8.238;2023-12-29T11:33:14;2.17;;;0.52;;
66212;SDS011;53015;50.046;8.238;2023-12-29T11:35:44;1.52;;;0.60;;
66212;SDS011;53015;50.046;8.238;2023-12-29T11:38:20;4.65;;;0.80;;
66212;SDS011;53015;50.046;8.238;2023-12-29T11:40:55;1.58;;;0.65;;
66212;SDS011;53015;50.046;8.238;2023-12-29T11:43:27;1.10;;;0.60;;
66212;SDS011;53015;50.046;8.238;2023-12-29T11:45:54;2.30;;;0.52;;
66212;SDS011;53015;50.046;8.238;2023-12-29T11:51:28;1.27;;;0.50;;
66212;SDS011;53015;50.046;8.238;2023-12-29T11:53:54;4.18;;;0.80;;
66212;SDS011;53015;50.046;8.238;2023-12-29T11:56:20;2.70;;;0.70;;
66212;SDS011;53015;50.046;8.238;2023-12-29T11:58:46;2.25;;;0.63;;
66212;SDS011;53015;50.046;8.238;2023-12-29T12:01:13;1.45;;;0.50;;
66212;SDS011;53015;50.046;8.238;2023-12-29T12:03:39;2.05;;;0.30;;
66212;SDS011;53015;50.046;8.238;2023-12-29T12:06:04;3.25;;;0.77;;
66212;SDS011;53015;50.046;8.238;2023-12-29T12:08:30;1.52;;;0.88;;
66212;SDS011;53015;50.046;8.238;2023-12-29T12:10:57;1.15;;;0.32;;
66212;SDS011;53015;50.046;8.238;2023-12-29T12:13:43;2.47;;;0.50;;
66212;SDS011;53015;50.046;8.238;2023-12-29T12:16:09;1.05;;;0.47;;
66212;SDS011;53015;50.046;8.238;2023-12-29T12:18:36;0.90;;;0.28;;
66212;SDS011;53015;50.046;8.238;2023-12-29T12:21:03;1.73;;;0.60;;
66212;SDS011;53015;50.046;8.238;2023-12-29T12:23:30;2.88;;;0.93;;
66212;SDS011;53015;50.046;8.238;2023-12-29T12:26:00;1.35;;;0.77;;
66212;SDS011;53015;50.046;8.238;2023-12-29T12:28:26;2.85;;;0.80;;
66212;SDS011;53015;50.046;8.238;2023-12-29T12:30:52;1.05;;;0.60;;
66212;SDS011;53015;50.046;8.238;2023-12-29T12:33:29;1.30;;;0.57;;
66212;SDS011;53015;50.046;8.238;2023-12-29T12:35:59;2.13;;;0.40;;
66212;SDS011;53015;50.046;8.238;2023-12-29T12:38:25;2.05;;;0.40;;
66212;SDS011;53015;50.046;8.238;2023-12-29T12:40:51;2.88;;;0.60;;
66212;SDS011;53015;50.046;8.238;2023-12-29T12:43:16;1.38;;;0.60;;
66212;SDS011;53015;50.046;8.238;2023-12-29T12:45:42;1.55;;;0.50;;
66212;SDS011;53015;50.046;8.238;2023-12-29T12:48:13;2.78;;;0.75;;
66212;SDS011;53015;50.046;8.238;2023-12-29T12:50:44;2.15;;;0.70;;
66212;SDS011;53015;50.046;8.238;2023-12-29T12:53:12;2.42;;;0.60;;
66212;SDS011;53015;50.046;8.238;2023-12-29T12:55:38;1.27;;;0.50;;
66212;SDS011;53015;50.046;8.238;2023-12-29T12:58:04;2.25;;;0.73;;
66212;SDS011;53015;50.046;8.238;2023-12-29T13:00:29;2.97;;;0.95;;
66212;SDS011;53015;50.046;8.238;2023-12-29T13:02:55;0.32;;;0.30;;
66212;SDS011;53015;50.046;8.238;2023-12-29T13:05:20;2.97;;;0.65;;
66212;SDS011;53015;50.046;8.238;2023-12-29T13:07:46;1.73;;;0.73;;
66212;SDS011;53015;50.046;8.238;2023-12-29T13:10:13;2.13;;;0.88;;
66212;SDS011;53015;50.046;8.238;2023-12-29T13:12:39;2.70;;;0.60;;
66212;SDS011;53015;50.046;8.238;2023-12-29T13:15:05;2.30;;;0.55;;
66212;SDS011;53015;50.046;8.238;2023-12-29T13:17:30;1.52;;;0.57;;
66212;SDS011;53015;50.046;8.238;2023-12-29T13:19:57;1.40;;;0.57;;
66212;SDS011;53015;50.046;8.238;2023-12-29T13:22:23;1.50;;;0.60;;
66212;SDS011;53015;50.046;8.238;2023-12-29T13:24:48;1.23;;;0.38;;
66212;SDS011;53015;50.046;8.238;2023-12-29T13:27:15;3.08;;;0.60;;
66212;SDS011;53015;50.046;8.238;2023-12-29T13:29:41;1.05;;;0.50;;
66212;SDS011;53015;50.046;8.238;2023-12-29T13:32:09;2.60;;;0.55;;
66212;SDS011;53015;50.046;8.238;2023-12-29T13:34:38;2.83;;;0.70;;
66212;SDS011;53015;50.046;8.238;2023-12-29T13:37:15;1.08;;;0.40;;
66212;SDS011;53015;50.046;8.238;2023-12-29T13:39:50;0.47;;;0.30;;
66212;SDS011;53015;50.046;8.238;2023-12-29T13:42:20;1.13;;;0.60;;
66212;SDS011;53015;50.046;8.238;2023-12-29T13:44:48;1.73;;;0.68;;
66212;SDS011;53015;50.046;8.238;2023-12-29T13:47:16;3.28;;;0.60;;
66212;SDS011;53015;50.046;8.238;2023-12-29T13:49:42;1.23;;;0.80;;
66212;SDS011;53015;50.046;8.238;2023-12-29T13:52:07;1.27;;;0.50;;
66212;SDS011;53015;50.046;8.238;2023-12-29T13:54:40;0.85;;;0.40;;
66212;SDS011;53015;50.046;8.238;2023-12-29T13:57:05;0.70;;;0.30;;
66212;SDS011;53015;50.046;8.238;2023-12-29T13:59:32;1.33;;;0.50;;
66212;SDS011;53015;50.046;8.238;2023-12-29T14:01:58;1.55;;;0.35;;
66212;SDS011;53015;50.046;8.238;2023-12-29T14:04:28;0.70;;;0.38;;
66212;SDS011;53015;50.046;8.238;2023-12-29T14:06:54;1.73;;;0.30;;
66212;SDS011;53015;50.046;8.238;2023-12-29T14:09:24;1.08;;;0.28;;
66212;SDS011;53015;50.046;8.238;2023-12-29T14:11:50;3.40;;;0.40;;
66212;SDS011;53015;50.046;8.238;2023-12-29T14:14:21;0.65;;;0.30;;
66212;SDS011;53015;50.046;8.238;2023-12-29T14:16:48;2.88;;;0.40;;
66212;SDS011;53015;50.046;8.238;2023-12-29T14:19:14;1.73;;;0.47;;
66212;SDS011;53015;50.046;8.238;2023-12-29T14:21:39;1.40;;;0.38;;
66212;SDS011;53015;50.046;8.238;2023-12-29T14:24:06;1.67;;;0.57;;
66212;SDS011;53015;50.046;8.238;2023-12-29T14:26:33;1.20;;;0.30;;
66212;SDS011;53015;50.046;8.238;2023-12-29T14:29:02;2.17;;;0.50;;
66212;SDS011;53015;50.046;8.238;2023-12-29T14:31:28;1.13;;;0.45;;
66212;SDS011;53015;50.046;8.238;2023-12-29T14:33:57;3.35;;;0.50;;
66212;SDS011;53015;50.046;8.238;2023-12-29T14:36:23;0.88;;;0.50;;
66212;SDS011;53015;50.046;8.238;2023-12-29T14:38:49;2.42;;;0.65;;
66212;SDS011;53015;50.046;8.238;2023-12-29T14:41:14;2.75;;;0.80;;
66212;SDS011;53015;50.046;8.238;2023-12-29T14:43:40;1.48;;;0.20;;
66212;SDS011;53015;50.046;8.238;2023-12-29T14:46:06;0.68;;;0.40;;
66212;SDS011;53015;50.046;8.238;2023-12-29T14:48:31;1.65;;;0.50;;